sensor_id;sensor_type;location;lat;lon;timestamp;pressure;altitude;pressure_sealevel;temperature;humidity
6096;BME280;25081;42.698;23.298;2023-03-31T00:01:01;95233.08;;;8.29;62.45
6096;BME280;25081;42.698;23.298;2023-03-31T00:03:11;95241.98;;;8.26;61.96
6096;BME280;25081;42.698;23.298;2023-03-31T00:05:22;95235.35;;;8.32;61.89
6096;BME280;25081;42.698;23.298;2023-03-31T00:07:32;95243.23;;;8.30;61.31
6096;BME280;25081;42.698;23.298;2023-03-31T00:09:43;95237.78;;;8.27;61.51
6096;BME280;25081;42.698;23.298;2023-03-31T00:11:54;95232.29;;;8.22;62.24
6096;BME280;25081;42.698;23.298;2023-03-31T00:14:05;95237.09;;;8.23;62.20
6096;BME280;25081;42.698;23.298;2023-03-31T00:16:16;95222.68;;;8.15;62.60
6096;BME280;25081;42.698;23.298;2023-03-31T00:18:26;95227.88;;;8.19;62.69
6096;BME280;25081;42.698;23.298;2023-03-31T00:20:37;95231.05;;;8.25;61.76
6096;BME280;25081;42.698;23.298;2023-03-31T00:22:47;95227.38;;;8.26;62.10
6096;BME280;25081;42.698;23.298;2023-03-31T00:24:58;95226.86;;;8.26;62.36
6096;BME280;25081;42.698;23.298;2023-03-31T00:27:08;95225.03;;;8.14;63.19
6096;BME280;25081;42.698;23.298;2023-03-31T00:29:19;95222.86;;;7.87;63.83
6096;BME280;25081;42.698;23.298;2023-03-31T00:31:29;95232.05;;;7.91;63.73
6096;BME280;25081;42.698;23.298;2023-03-31T00:33:40;95233.69;;;7.98;64.02
6096;BME280;25081;42.698;23.298;2023-03-31T00:35:52;95226.25;;;8.04;63.84
6096;BME280;25081;42.698;23.298;2023-03-31T00:38:02;95226.14;;;7.95;63.87
6096;BME280;25081;42.698;23.298;2023-03-31T00:40:13;95219.62;;;8.04;63.43
6096;BME280;25081;42.698;23.298;2023-03-31T00:42:24;95217.56;;;8.20;62.27
6096;BME280;25081;42.698;23.298;2023-03-31T00:44:37;95222.36;;;8.27;62.93
6096;BME280;25081;42.698;23.298;2023-03-31T00:46:49;95215.64;;;8.11;63.40
6096;BME280;25081;42.698;23.298;2023-03-31T00:49:00;95210.52;;;8.10;63.50
6096;BME280;25081;42.698;23.298;2023-03-31T00:51:11;95206.86;;;8.11;63.62
6096;BME280;25081;42.698;23.298;2023-03-31T00:53:22;95220.14;;;8.11;63.50
6096;BME280;25081;42.698;23.298;2023-03-31T00:55:33;95216.95;;;8.24;63.47
6096;BME280;25081;42.698;23.298;2023-03-31T00:57:43;95195.81;;;8.27;63.24
6096;BME280;25081;42.698;23.298;2023-03-31T00:59:54;95189.80;;;8.22;62.67
6096;BME280;25081;42.698;23.298;2023-03-31T01:02:04;95190.92;;;8.37;62.24
6096;BME280;25081;42.698;23.298;2023-03-31T01:04:14;95182.14;;;8.50;62.54
6096;BME280;25081;42.698;23.298;2023-03-31T01:06:25;95189.69;;;8.59;62.35
6096;BME280;25081;42.698;23.298;2023-03-31T01:08:36;95191.09;;;8.62;62.16
6096;BME280;25081;42.698;23.298;2023-03-31T01:10:46;95188.10;;;8.74;62.14
6096;BME280;25081;42.698;23.298;2023-03-31T01:12:57;95195.05;;;8.75;62.69
6096;BME280;25081;42.698;23.298;2023-03-31T01:15:09;95194.31;;;8.84;62.88
6096;BME280;25081;42.698;23.298;2023-03-31T01:17:20;95178.80;;;8.74;63.06
6096;BME280;25081;42.698;23.298;2023-03-31T01:19:34;95185.48;;;8.54;61.91
6096;BME280;25081;42.698;23.298;2023-03-31T01:21:58;95190.67;;;8.65;62.30
6096;BME280;25081;42.698;23.298;2023-03-31T01:27:15;95187.29;;;8.67;60.39
6096;BME280;25081;42.698;23.298;2023-03-31T01:29:36;95191.99;;;8.78;61.14
6096;BME280;25081;42.698;23.298;2023-03-31T01:37:48;95194.55;;;9.05;60.16
6096;BME280;25081;42.698;23.298;2023-03-31T01:40:24;95196.83;;;8.95;59.87
6096;BME280;25081;42.698;23.298;2023-03-31T01:42:34;95200.91;;;8.97;60.87
6096;BME280;25081;42.698;23.298;2023-03-31T01:44:46;95208.80;;;8.95;59.55
6096;BME280;25081;42.698;23.298;2023-03-31T01:46:56;95205.70;;;9.04;58.86
6096;BME280;25081;42.698;23.298;2023-03-31T01:49:11;95204.28;;;9.02;58.74
6096;BME280;25081;42.698;23.298;2023-03-31T01:51:20;95214.19;;;9.04;58.78
6096;BME280;25081;42.698;23.298;2023-03-31T01:53:30;95213.80;;;9.00;59.06
6096;BME280;25081;42.698;23.298;2023-03-31T01:55:41;95221.87;;;8.96;58.63
6096;BME280;25081;42.698;23.298;2023-03-31T01:57:51;95219.42;;;9.01;58.90
6096;BME280;25081;42.698;23.298;2023-03-31T02:00:03;95224.52;;;9.03;58.99
6096;BME280;25081;42.698;23.298;2023-03-31T02:02:14;95222.98;;;9.04;59.21
6096;BME280;25081;42.698;23.298;2023-03-31T02:04:25;95223.70;;;9.09;58.99
6096;BME280;25081;42.698;23.298;2023-03-31T02:06:35;95222.32;;;9.15;58.46
6096;BME280;25081;42.698;23.298;2023-03-31T02:08:46;95218.98;;;9.04;58.80
6096;BME280;25081;42.698;23.298;2023-03-31T02:10:55;95225.13;;;9.05;58.67
6096;BME280;25081;42.698;23.298;2023-03-31T02:13:06;95229.03;;;8.96;58.64
6096;BME280;25081;42.698;23.298;2023-03-31T02:15:18;95232.11;;;8.99;59.17
6096;BME280;25081;42.698;23.298;2023-03-31T02:17:28;95236.10;;;8.99;59.52
6096;BME280;25081;42.698;23.298;2023-03-31T02:19:39;95235.38;;;9.01;59.71
6096;BME280;25081;42.698;23.298;2023-03-31T02:21:50;95240.91;;;8.93;59.69
6096;BME280;25081;42.698;23.298;2023-03-31T02:24:01;95247.26;;;8.92;60.03
6096;BME280;25081;42.698;23.298;2023-03-31T02:26:12;95255.75;;;8.85;62.31
6096;BME280;25081;42.698;23.298;2023-03-31T02:28:22;95260.37;;;8.74;63.51
6096;BME280;25081;42.698;23.298;2023-03-31T02:30:33;95259.34;;;8.68;66.11
6096;BME280;25081;42.698;23.298;2023-03-31T02:32:43;95274.60;;;8.70;67.44
6096;BME280;25081;42.698;23.298;2023-03-31T02:34:54;95267.44;;;8.71;66.63
6096;BME280;25081;42.698;23.298;2023-03-31T02:37:04;95268.25;;;8.58;66.75
6096;BME280;25081;42.698;23.298;2023-03-31T02:39:16;95268.46;;;8.56;66.56
6096;BME280;25081;42.698;23.298;2023-03-31T02:41:26;95278.46;;;8.68;67.62
6096;BME280;25081;42.698;23.298;2023-03-31T02:43:36;95271.12;;;8.56;68.73
6096;BME280;25081;42.698;23.298;2023-03-31T02:45:47;95273.08;;;8.52;69.41
6096;BME280;25081;42.698;23.298;2023-03-31T02:47:57;95263.75;;;8.58;71.10
6096;BME280;25081;42.698;23.298;2023-03-31T02:50:10;95272.33;;;8.67;72.21
6096;BME280;25081;42.698;23.298;2023-03-31T02:52:46;95266.92;;;8.71;73.35
6096;BME280;25081;42.698;23.298;2023-03-31T02:57:51;95245.54;;;8.88;70.66
6096;BME280;25081;42.698;23.298;2023-03-31T03:00:05;95248.83;;;9.13;69.66
6096;BME280;25081;42.698;23.298;2023-03-31T03:02:17;95241.66;;;9.20;70.55
6096;BME280;25081;42.698;23.298;2023-03-31T03:04:37;95232.33;;;9.27;68.78
6096;BME280;25081;42.698;23.298;2023-03-31T03:06:49;95225.33;;;9.32;69.46
6096;BME280;25081;42.698;23.298;2023-03-31T03:09:10;95224.13;;;9.28;68.83
6096;BME280;25081;42.698;23.298;2023-03-31T03:11:19;95220.29;;;9.40;67.79
6096;BME280;25081;42.698;23.298;2023-03-31T03:13:33;95216.16;;;9.44;68.04
6096;BME280;25081;42.698;23.298;2023-03-31T03:15:43;95214.95;;;9.46;68.36
6096;BME280;25081;42.698;23.298;2023-03-31T03:17:53;95206.83;;;9.51;67.19
6096;BME280;25081;42.698;23.298;2023-03-31T03:20:04;95204.95;;;9.58;66.74
6096;BME280;25081;42.698;23.298;2023-03-31T03:22:16;95199.49;;;9.62;67.18
6096;BME280;25081;42.698;23.298;2023-03-31T03:24:27;95200.72;;;9.66;67.92
6096;BME280;25081;42.698;23.298;2023-03-31T03:26:37;95203.38;;;9.66;68.44
6096;BME280;25081;42.698;23.298;2023-03-31T03:28:48;95206.03;;;9.66;69.07
6096;BME280;25081;42.698;23.298;2023-03-31T03:30:58;95198.90;;;9.60;69.60
6096;BME280;25081;42.698;23.298;2023-03-31T03:33:09;95205.03;;;9.60;70.02
6096;BME280;25081;42.698;23.298;2023-03-31T03:35:19;95200.01;;;9.61;70.38
6096;BME280;25081;42.698;23.298;2023-03-31T03:37:30;95193.66;;;9.62;71.27
6096;BME280;25081;42.698;23.298;2023-03-31T03:39:40;95196.91;;;9.64;71.03
6096;BME280;25081;42.698;23.298;2023-03-31T03:41:51;95188.41;;;9.65;70.94
6096;BME280;25081;42.698;23.298;2023-03-31T03:44:02;95186.48;;;9.63;71.66
6096;BME280;25081;42.698;23.298;2023-03-31T03:46:12;95183.14;;;9.58;71.43
6096;BME280;25081;42.698;23.298;2023-03-31T03:48:23;95183.36;;;9.57;71.18
6096;BME280;25081;42.698;23.298;2023-03-31T03:50:37;95173.94;;;9.54;71.57
6096;BME280;25081;42.698;23.298;2023-03-31T03:52:47;95174.75;;;9.55;71.68
6096;BME280;25081;42.698;23.298;2023-03-31T03:54:58;95174.59;;;9.50;71.74
6096;BME280;25081;42.698;23.298;2023-03-31T03:57:08;95184.20;;;9.51;71.74
6096;BME280;25081;42.698;23.298;2023-03-31T03:59:19;95180.44;;;9.49;71.21
6096;BME280;25081;42.698;23.298;2023-03-31T04:01:29;95183.34;;;9.41;70.40
6096;BME280;25081;42.698;23.298;2023-03-31T04:03:40;95186.73;;;9.39;70.08
6096;BME280;25081;42.698;23.298;2023-03-31T04:05:50;95185.41;;;9.39;69.81
6096;BME280;25081;42.698;23.298;2023-03-31T04:08:00;95194.42;;;9.38;69.95
6096;BME280;25081;42.698;23.298;2023-03-31T04:10:11;95187.98;;;9.36;69.61
6096;BME280;25081;42.698;23.298;2023-03-31T04:12:22;95192.05;;;9.39;70.09
6096;BME280;25081;42.698;23.298;2023-03-31T04:14:32;95186.66;;;9.36;70.46
6096;BME280;25081;42.698;23.298;2023-03-31T04:16:43;95195.25;;;9.32;70.51
6096;BME280;25081;42.698;23.298;2023-03-31T04:18:55;95197.91;;;9.32;71.20
6096;BME280;25081;42.698;23.298;2023-03-31T04:21:06;95196.82;;;9.24;71.50
6096;BME280;25081;42.698;23.298;2023-03-31T04:23:16;95193.55;;;9.28;71.95
6096;BME280;25081;42.698;23.298;2023-03-31T04:25:27;95194.66;;;9.30;72.14
6096;BME280;25081;42.698;23.298;2023-03-31T04:27:37;95190.88;;;9.28;72.02
6096;BME280;25081;42.698;23.298;2023-03-31T04:29:47;95190.47;;;9.25;71.95
6096;BME280;25081;42.698;23.298;2023-03-31T04:31:58;95191.33;;;9.18;71.99
6096;BME280;25081;42.698;23.298;2023-03-31T04:34:09;95187.64;;;9.20;72.13
6096;BME280;25081;42.698;23.298;2023-03-31T04:36:21;95189.38;;;9.16;72.14
6096;BME280;25081;42.698;23.298;2023-03-31T04:38:31;95189.66;;;9.02;72.15
6096;BME280;25081;42.698;23.298;2023-03-31T04:40:42;95182.55;;;8.89;72.56
6096;BME280;25081;42.698;23.298;2023-03-31T04:42:52;95184.41;;;8.82;72.09
6096;BME280;25081;42.698;23.298;2023-03-31T04:45:03;95183.90;;;8.76;72.24
6096;BME280;25081;42.698;23.298;2023-03-31T04:47:13;95185.43;;;8.81;72.21
6096;BME280;25081;42.698;23.298;2023-03-31T04:49:24;95184.41;;;8.82;72.46
6096;BME280;25081;42.698;23.298;2023-03-31T04:51:35;95184.28;;;8.86;72.91
6096;BME280;25081;42.698;23.298;2023-03-31T04:53:45;95178.05;;;8.89;72.28
6096;BME280;25081;42.698;23.298;2023-03-31T04:55:55;95171.13;;;9.04;71.98
6096;BME280;25081;42.698;23.298;2023-03-31T04:58:06;95171.47;;;9.21;71.92
6096;BME280;25081;42.698;23.298;2023-03-31T05:00:19;95169.68;;;9.31;71.53
6096;BME280;25081;42.698;23.298;2023-03-31T05:02:30;95169.71;;;9.46;71.21
6096;BME280;25081;42.698;23.298;2023-03-31T05:04:40;95164.00;;;9.59;71.04
6096;BME280;25081;42.698;23.298;2023-03-31T05:06:51;95162.31;;;9.64;70.26
6096;BME280;25081;42.698;23.298;2023-03-31T05:09:01;95164.44;;;9.56;70.44
6096;BME280;25081;42.698;23.298;2023-03-31T05:11:12;95160.12;;;9.55;69.87
6096;BME280;25081;42.698;23.298;2023-03-31T05:13:23;95160.12;;;9.55;69.87
6096;BME280;25081;42.698;23.298;2023-03-31T05:15:37;95157.31;;;9.65;69.59
6096;BME280;25081;42.698;23.298;2023-03-31T05:17:47;95154.77;;;9.77;69.37
6096;BME280;25081;42.698;23.298;2023-03-31T05:19:58;95151.70;;;9.89;69.11
6096;BME280;25081;42.698;23.298;2023-03-31T05:22:08;95153.36;;;9.99;68.95
6096;BME280;25081;42.698;23.298;2023-03-31T05:24:19;95151.79;;;10.17;69.04
6096;BME280;25081;42.698;23.298;2023-03-31T05:26:34;95146.93;;;10.23;68.22
6096;BME280;25081;42.698;23.298;2023-03-31T05:28:44;95147.57;;;10.34;67.77
6096;BME280;25081;42.698;23.298;2023-03-31T05:30:55;95139.78;;;10.08;67.40
6096;BME280;25081;42.698;23.298;2023-03-31T05:33:05;95147.40;;;10.29;67.51
6096;BME280;25081;42.698;23.298;2023-03-31T05:35:16;95140.83;;;10.41;66.76
6096;BME280;25081;42.698;23.298;2023-03-31T05:37:27;95144.80;;;10.31;67.57
6096;BME280;25081;42.698;23.298;2023-03-31T05:39:40;95143.99;;;10.06;68.30
6096;BME280;25081;42.698;23.298;2023-03-31T05:41:51;95133.44;;;10.18;68.89
6096;BME280;25081;42.698;23.298;2023-03-31T05:44:01;95136.00;;;10.31;67.97
6096;BME280;25081;42.698;23.298;2023-03-31T05:46:12;95132.78;;;10.56;67.59
6096;BME280;25081;42.698;23.298;2023-03-31T05:48:22;95137.08;;;10.85;67.48
6096;BME280;25081;42.698;23.298;2023-03-31T05:50:32;95129.89;;;11.04;65.88
6096;BME280;25081;42.698;23.298;2023-03-31T05:52:43;95127.35;;;11.00;65.49
6096;BME280;25081;42.698;23.298;2023-03-31T05:54:53;95127.16;;;10.83;66.43
6096;BME280;25081;42.698;23.298;2023-03-31T05:57:04;95140.67;;;11.18;66.43
6096;BME280;25081;42.698;23.298;2023-03-31T05:59:14;95139.86;;;11.17;65.94
6096;BME280;25081;42.698;23.298;2023-03-31T06:01:25;95141.76;;;11.29;65.81
6096;BME280;25081;42.698;23.298;2023-03-31T06:03:36;95133.97;;;11.36;64.59
6096;BME280;25081;42.698;23.298;2023-03-31T06:05:48;95129.36;;;11.64;62.71
6096;BME280;25081;42.698;23.298;2023-03-31T06:08:02;95138.45;;;11.75;61.65
6096;BME280;25081;42.698;23.298;2023-03-31T06:10:13;95146.22;;;11.56;61.87
6096;BME280;25081;42.698;23.298;2023-03-31T06:12:23;95150.64;;;11.71;61.86
6096;BME280;25081;42.698;23.298;2023-03-31T06:14:34;95149.03;;;11.91;61.80
6096;BME280;25081;42.698;23.298;2023-03-31T06:16:45;95142.61;;;12.01;61.75
6096;BME280;25081;42.698;23.298;2023-03-31T06:18:56;95140.16;;;11.88;63.00
6096;BME280;25081;42.698;23.298;2023-03-31T06:21:07;95140.06;;;11.85;63.16
6096;BME280;25081;42.698;23.298;2023-03-31T06:23:17;95140.77;;;11.81;63.67
6096;BME280;25081;42.698;23.298;2023-03-31T06:25:27;95133.11;;;11.24;65.02
6096;BME280;25081;42.698;23.298;2023-03-31T06:27:38;95137.43;;;11.67;62.89
6096;BME280;25081;42.698;23.298;2023-03-31T06:29:49;95132.92;;;12.21;60.46
6096;BME280;25081;42.698;23.298;2023-03-31T06:31:59;95134.20;;;12.53;54.72
6096;BME280;25081;42.698;23.298;2023-03-31T06:34:12;95132.83;;;13.14;53.51
6096;BME280;25081;42.698;23.298;2023-03-31T06:36:23;95133.97;;;13.73;50.91
6096;BME280;25081;42.698;23.298;2023-03-31T06:38:33;95131.18;;;13.99;49.09
6096;BME280;25081;42.698;23.298;2023-03-31T06:40:44;95133.07;;;14.32;48.97
6096;BME280;25081;42.698;23.298;2023-03-31T06:42:55;95133.78;;;14.78;47.64
6096;BME280;25081;42.698;23.298;2023-03-31T06:45:07;95128.30;;;15.58;46.27
6096;BME280;25081;42.698;23.298;2023-03-31T06:47:17;95115.17;;;16.52;43.47
6096;BME280;25081;42.698;23.298;2023-03-31T06:49:28;95130.47;;;17.39;41.37
6096;BME280;25081;42.698;23.298;2023-03-31T06:51:38;95130.47;;;17.39;41.37
6096;BME280;25081;42.698;23.298;2023-03-31T06:53:49;95133.64;;;17.26;41.91
6096;BME280;25081;42.698;23.298;2023-03-31T06:55:59;95122.95;;;16.14;43.72
6096;BME280;25081;42.698;23.298;2023-03-31T06:58:10;95141.70;;;15.77;44.68
6096;BME280;25081;42.698;23.298;2023-03-31T07:00:21;95136.08;;;16.08;44.02
6096;BME280;25081;42.698;23.298;2023-03-31T07:02:32;95136.08;;;16.08;44.02
6096;BME280;25081;42.698;23.298;2023-03-31T07:04:42;95126.55;;;16.62;42.72
6096;BME280;25081;42.698;23.298;2023-03-31T07:06:53;95103.27;;;16.41;42.05
6096;BME280;25081;42.698;23.298;2023-03-31T07:09:04;95103.27;;;16.41;42.05
6096;BME280;25081;42.698;23.298;2023-03-31T07:11:14;95092.16;;;16.00;42.21
6096;BME280;25081;42.698;23.298;2023-03-31T07:13:25;95086.09;;;17.74;39.22
6096;BME280;25081;42.698;23.298;2023-03-31T07:15:36;95086.09;;;17.74;39.22
6096;BME280;25081;42.698;23.298;2023-03-31T07:17:46;95079.28;;;19.64;36.29
6096;BME280;25081;42.698;23.298;2023-03-31T07:19:57;95066.59;;;20.67;34.02
6096;BME280;25081;42.698;23.298;2023-03-31T07:22:08;95056.47;;;20.48;33.55
6096;BME280;25081;42.698;23.298;2023-03-31T07:24:18;95055.12;;;20.48;34.08
6096;BME280;25081;42.698;23.298;2023-03-31T07:26:29;95057.19;;;21.71;32.58
6096;BME280;25081;42.698;23.298;2023-03-31T07:28:39;95058.88;;;21.48;31.82
6096;BME280;25081;42.698;23.298;2023-03-31T07:30:50;95062.70;;;20.99;32.91
6096;BME280;25081;42.698;23.298;2023-03-31T07:33:00;95066.88;;;21.96;32.01
6096;BME280;25081;42.698;23.298;2023-03-31T07:35:11;95063.20;;;22.06;31.69
6096;BME280;25081;42.698;23.298;2023-03-31T07:37:21;95067.72;;;20.29;33.57
6096;BME280;25081;42.698;23.298;2023-03-31T07:39:32;95069.76;;;20.47;34.28
6096;BME280;25081;42.698;23.298;2023-03-31T07:41:42;95061.62;;;21.22;33.06
6096;BME280;25081;42.698;23.298;2023-03-31T07:43:53;95062.36;;;21.89;31.99
6096;BME280;25081;42.698;23.298;2023-03-31T07:46:03;95059.77;;;21.43;32.98
6096;BME280;25081;42.698;23.298;2023-03-31T07:48:14;95057.93;;;21.58;32.46
6096;BME280;25081;42.698;23.298;2023-03-31T07:50:25;95066.38;;;21.94;31.60
6096;BME280;25081;42.698;23.298;2023-03-31T07:52:35;95057.83;;;21.84;31.82
6096;BME280;25081;42.698;23.298;2023-03-31T07:54:46;95057.05;;;22.98;30.83
6096;BME280;25081;42.698;23.298;2023-03-31T07:56:56;95059.38;;;23.43;29.37
6096;BME280;25081;42.698;23.298;2023-03-31T07:59:06;95058.27;;;23.58;29.39
6096;BME280;25081;42.698;23.298;2023-03-31T08:01:18;95054.17;;;23.19;29.57
6096;BME280;25081;42.698;23.298;2023-03-31T08:03:28;95067.03;;;21.86;31.12
6096;BME280;25081;42.698;23.298;2023-03-31T08:05:38;95053.25;;;22.96;29.38
6096;BME280;25081;42.698;23.298;2023-03-31T08:07:49;95048.95;;;23.61;29.60
6096;BME280;25081;42.698;23.298;2023-03-31T08:09:59;95040.81;;;23.06;29.52
6096;BME280;25081;42.698;23.298;2023-03-31T08:12:10;95047.63;;;22.14;30.72
6096;BME280;25081;42.698;23.298;2023-03-31T08:14:20;95040.97;;;21.28;31.74
6096;BME280;25081;42.698;23.298;2023-03-31T08:16:31;95039.27;;;19.97;33.73
6096;BME280;25081;42.698;23.298;2023-03-31T08:18:41;95048.73;;;19.58;35.01
6096;BME280;25081;42.698;23.298;2023-03-31T08:20:52;95051.07;;;19.75;34.34
6096;BME280;25081;42.698;23.298;2023-03-31T08:23:02;95045.84;;;19.42;34.55
6096;BME280;25081;42.698;23.298;2023-03-31T08:25:13;95046.64;;;18.85;35.65
6096;BME280;25081;42.698;23.298;2023-03-31T08:27:24;95036.79;;;19.69;34.82
6096;BME280;25081;42.698;23.298;2023-03-31T08:29:35;95031.74;;;21.05;32.58
6096;BME280;25081;42.698;23.298;2023-03-31T08:31:45;95035.24;;;22.05;31.19
6096;BME280;25081;42.698;23.298;2023-03-31T08:33:56;95028.79;;;23.10;29.64
6096;BME280;25081;42.698;23.298;2023-03-31T08:36:08;95034.46;;;22.37;30.60
6096;BME280;25081;42.698;23.298;2023-03-31T08:38:18;95029.39;;;23.84;28.78
6096;BME280;25081;42.698;23.298;2023-03-31T08:40:30;95024.74;;;24.30;27.73
6096;BME280;25081;42.698;23.298;2023-03-31T08:42:40;95030.29;;;24.69;27.36
6096;BME280;25081;42.698;23.298;2023-03-31T08:44:52;95027.34;;;24.57;27.24
6096;BME280;25081;42.698;23.298;2023-03-31T08:47:02;95023.92;;;24.94;26.74
6096;BME280;25081;42.698;23.298;2023-03-31T08:49:14;95030.00;;;23.18;28.51
6096;BME280;25081;42.698;23.298;2023-03-31T08:51:24;95022.86;;;23.33;29.01
6096;BME280;25081;42.698;23.298;2023-03-31T08:53:34;95017.45;;;23.19;29.01
6096;BME280;25081;42.698;23.298;2023-03-31T08:55:45;95014.73;;;23.44;28.22
6096;BME280;25081;42.698;23.298;2023-03-31T08:57:57;94997.52;;;23.85;28.27
6096;BME280;25081;42.698;23.298;2023-03-31T09:00:12;95001.25;;;24.34;27.50
6096;BME280;25081;42.698;23.298;2023-03-31T09:02:26;94992.30;;;24.19;27.46
6096;BME280;25081;42.698;23.298;2023-03-31T09:04:45;94996.33;;;23.66;27.68
6096;BME280;25081;42.698;23.298;2023-03-31T09:06:56;94988.73;;;22.72;29.26
6096;BME280;25081;42.698;23.298;2023-03-31T09:09:09;94988.00;;;20.40;32.98
6096;BME280;25081;42.698;23.298;2023-03-31T09:11:22;94994.42;;;20.76;32.58
6096;BME280;25081;42.698;23.298;2023-03-31T09:13:41;94995.13;;;20.31;33.17
6096;BME280;25081;42.698;23.298;2023-03-31T09:15:52;95002.39;;;19.31;34.22
6096;BME280;25081;42.698;23.298;2023-03-31T09:18:06;95002.83;;;19.45;34.80
6096;BME280;25081;42.698;23.298;2023-03-31T09:20:15;94997.17;;;19.84;33.90
6096;BME280;25081;42.698;23.298;2023-03-31T09:22:26;94996.93;;;20.41;32.75
6096;BME280;25081;42.698;23.298;2023-03-31T09:24:38;94995.52;;;20.19;32.96
6096;BME280;25081;42.698;23.298;2023-03-31T09:26:48;94989.17;;;20.32;32.85
6096;BME280;25081;42.698;23.298;2023-03-31T09:28:58;94981.73;;;20.18;33.04
6096;BME280;25081;42.698;23.298;2023-03-31T09:31:13;94993.13;;;19.42;34.13
6096;BME280;25081;42.698;23.298;2023-03-31T09:33:25;94997.41;;;19.45;34.27
6096;BME280;25081;42.698;23.298;2023-03-31T09:35:35;94992.96;;;19.67;34.35
6096;BME280;25081;42.698;23.298;2023-03-31T09:37:45;94993.42;;;20.11;33.31
6096;BME280;25081;42.698;23.298;2023-03-31T09:40:01;94991.35;;;19.69;33.77
6096;BME280;25081;42.698;23.298;2023-03-31T09:42:08;94997.47;;;18.86;34.99
6096;BME280;25081;42.698;23.298;2023-03-31T09:44:23;94989.73;;;18.49;35.64
6096;BME280;25081;42.698;23.298;2023-03-31T09:46:33;94993.44;;;18.78;35.48
6096;BME280;25081;42.698;23.298;2023-03-31T09:48:46;94992.56;;;18.96;35.09
6096;BME280;25081;42.698;23.298;2023-03-31T09:50:56;94986.92;;;18.87;34.96
6096;BME280;25081;42.698;23.298;2023-03-31T09:53:06;94981.88;;;18.68;35.50
6096;BME280;25081;42.698;23.298;2023-03-31T09:55:19;94982.57;;;18.91;35.09
6096;BME280;25081;42.698;23.298;2023-03-31T09:57:29;94975.64;;;18.62;36.09
6096;BME280;25081;42.698;23.298;2023-03-31T09:59:39;94971.94;;;19.10;34.94
6096;BME280;25081;42.698;23.298;2023-03-31T10:01:51;94967.91;;;19.52;34.48
6096;BME280;25081;42.698;23.298;2023-03-31T10:04:01;94970.80;;;19.65;34.47
6096;BME280;25081;42.698;23.298;2023-03-31T10:06:13;94962.42;;;19.98;33.82
6096;BME280;25081;42.698;23.298;2023-03-31T10:08:29;94960.77;;;20.55;32.80
6096;BME280;25081;42.698;23.298;2023-03-31T10:10:42;94954.75;;;20.85;32.08
6096;BME280;25081;42.698;23.298;2023-03-31T10:12:51;94956.28;;;21.53;30.81
6096;BME280;25081;42.698;23.298;2023-03-31T10:15:17;94948.48;;;21.65;30.70
6096;BME280;25081;42.698;23.298;2023-03-31T10:17:26;94941.84;;;21.17;31.25
6096;BME280;25081;42.698;23.298;2023-03-31T10:19:36;94938.41;;;20.42;32.63
6096;BME280;25081;42.698;23.298;2023-03-31T10:21:47;94934.77;;;20.57;32.34
6096;BME280;25081;42.698;23.298;2023-03-31T10:23:57;94933.37;;;20.60;32.39
6096;BME280;25081;42.698;23.298;2023-03-31T10:26:10;94933.80;;;20.45;32.60
6096;BME280;25081;42.698;23.298;2023-03-31T10:28:20;94933.22;;;20.22;33.12
6096;BME280;25081;42.698;23.298;2023-03-31T10:30:32;94937.98;;;19.40;34.69
6096;BME280;25081;42.698;23.298;2023-03-31T10:32:42;94939.97;;;19.25;34.77
6096;BME280;25081;42.698;23.298;2023-03-31T10:34:53;94940.45;;;18.87;34.90
6096;BME280;25081;42.698;23.298;2023-03-31T10:37:03;94940.16;;;18.94;35.31
6096;BME280;25081;42.698;23.298;2023-03-31T10:39:14;94934.34;;;18.67;36.61
6096;BME280;25081;42.698;23.298;2023-03-31T10:41:26;94930.03;;;18.58;37.35
6096;BME280;25081;42.698;23.298;2023-03-31T10:43:37;94926.79;;;18.66;37.36
6096;BME280;25081;42.698;23.298;2023-03-31T10:45:48;94922.57;;;18.35;38.03
6096;BME280;25081;42.698;23.298;2023-03-31T10:47:59;94919.33;;;18.30;38.14
6096;BME280;25081;42.698;23.298;2023-03-31T10:50:14;94921.75;;;18.31;38.46
6096;BME280;25081;42.698;23.298;2023-03-31T10:52:25;94914.70;;;18.46;38.08
6096;BME280;25081;42.698;23.298;2023-03-31T10:54:35;94914.44;;;18.45;37.92
6096;BME280;25081;42.698;23.298;2023-03-31T10:56:46;94914.48;;;18.29;38.31
6096;BME280;25081;42.698;23.298;2023-03-31T11:04:38;94907.78;;;18.17;38.52
6096;BME280;25081;42.698;23.298;2023-03-31T11:06:53;94898.34;;;18.17;37.84
6096;BME280;25081;42.698;23.298;2023-03-31T11:09:10;94893.75;;;18.12;37.89
6096;BME280;25081;42.698;23.298;2023-03-31T11:11:24;94893.69;;;16.21;38.44
6096;BME280;25081;42.698;23.298;2023-03-31T11:13:35;94907.19;;;18.35;38.25
6096;BME280;25081;42.698;23.298;2023-03-31T11:15:46;94875.68;;;18.15;38.18
6096;BME280;25081;42.698;23.298;2023-03-31T11:18:00;94886.73;;;18.16;38.10
6096;BME280;25081;42.698;23.298;2023-03-31T11:20:15;94883.66;;;18.41;37.51
6096;BME280;25081;42.698;23.298;2023-03-31T11:22:27;94882.15;;;18.12;37.56
6096;BME280;25081;42.698;23.298;2023-03-31T11:27:30;94865.80;;;17.78;38.53
6096;BME280;25081;42.698;23.298;2023-03-31T11:29:40;94825.35;;;17.78;38.53
6096;BME280;25081;42.698;23.298;2023-03-31T11:31:51;94865.72;;;18.03;38.00
6096;BME280;25081;42.698;23.298;2023-03-31T11:34:10;94858.82;;;18.41;37.22
6096;BME280;25081;42.698;23.298;2023-03-31T11:36:44;94856.04;;;18.59;37.29
6096;BME280;25081;42.698;23.298;2023-03-31T11:39:03;94859.83;;;18.58;36.79
6096;BME280;25081;42.698;23.298;2023-03-31T11:41:12;94857.84;;;18.79;36.55
6096;BME280;25081;42.698;23.298;2023-03-31T11:43:26;94850.44;;;18.97;36.50
6096;BME280;25081;42.698;23.298;2023-03-31T11:45:36;94847.11;;;18.69;36.51
6096;BME280;25081;42.698;23.298;2023-03-31T11:47:48;94850.27;;;18.26;37.78
6096;BME280;25081;42.698;23.298;2023-03-31T11:49:57;94846.13;;;18.42;37.39
6096;BME280;25081;42.698;23.298;2023-03-31T11:52:08;94841.59;;;18.35;37.64
6096;BME280;25081;42.698;23.298;2023-03-31T11:54:19;94835.93;;;18.31;38.01
6096;BME280;25081;42.698;23.298;2023-03-31T11:56:30;94837.81;;;18.36;37.63
6096;BME280;25081;42.698;23.298;2023-03-31T11:58:41;94835.47;;;18.11;38.14
6096;BME280;25081;42.698;23.298;2023-03-31T12:00:52;94795.00;;;18.11;38.14